Time;durP1;ratioP1;P1;durP2;ratioP2;P2;SDS_P1;SDS_P2;PMS_P1;PMS_P2;Temp;Humidity;BMP_temperature;BMP_pressure;BME280_temperature;BME280_humidity;BME280_pressure;Samples;Min_cycle;Max_cycle;Signal;HPM_P1;HPM_P2
2023/10/02 00:01:53;;;;;;;10.97;6.27;;;16.70;99.90;;;;;;5206127;28;20446;-49
2023/10/02 00:04:25;;;;;;;13.17;6.67;;;16.70;99.90;;;;;;5205875;28;20784;-51
2023/10/02 00:07:07;;;;;;;14.10;6.13;;;16.50;99.90;;;;;;5203260;28;20574;-51
2023/10/02 00:09:49;;;;;;;16.03;6.43;;;16.50;99.90;;;;;;5189095;28;20455;-50
2023/10/02 00:12:20;;;;;;;9.33;5.70;;;16.40;99.90;;;;;;5205932;28;20458;-50
2023/10/02 00:14:51;;;;;;;12.23;6.73;;;16.30;99.90;;;;;;5206404;28;20430;-49
2023/10/02 00:17:24;;;;;;;14.37;5.20;;;16.30;99.90;;;;;;5202834;28;20429;-50
2023/10/02 00:19:57;;;;;;;25.07;6.33;;;16.20;99.90;;;;;;5206163;28;20454;-50
2023/10/02 00:22:46;;;;;;;9.73;5.53;;;16.30;99.90;;;;;;5204903;28;20430;-49
2023/10/02 00:25:19;;;;;;;10.80;5.17;;;16.30;99.90;;;;;;5205481;28;20438;-50
2023/10/02 00:27:51;;;;;;;8.63;5.93;;;16.30;99.90;;;;;;5205787;28;20514;-50
2023/10/02 00:30:30;;;;;;;12.67;5.93;;;16.30;99.90;;;;;;5206251;28;20462;-51
2023/10/02 00:33:02;;;;;;;11.60;6.00;;;16.40;99.90;;;;;;5193897;28;20515;-51
2023/10/02 00:35:50;;;;;;;16.30;6.43;;;16.40;99.90;;;;;;5201781;28;20438;-50
2023/10/02 00:38:21;;;;;;;8.73;5.40;;;16.40;99.90;;;;;;5202112;28;20938;-49
2023/10/02 00:40:51;;;;;;;13.67;6.10;;;16.40;99.90;;;;;;5203521;28;20438;-50
2023/10/02 00:43:34;;;;;;;10.17;5.67;;;16.50;99.90;;;;;;5198328;28;20187;-50
2023/10/02 00:46:04;;;;;;;9.77;6.43;;;16.60;99.90;;;;;;5204808;28;20283;-52
2023/10/02 00:48:37;;;;;;;10.80;6.27;;;16.50;99.90;;;;;;5182687;28;20435;-51
2023/10/02 00:51:11;;;;;;;11.60;4.73;;;16.60;99.90;;;;;;5205282;28;20183;-51
2023/10/02 00:53:47;;;;;;;11.30;6.53;;;16.60;99.90;;;;;;5206741;28;21020;-50
2023/10/02 00:56:23;;;;;;;9.80;5.30;;;16.70;99.90;;;;;;5204251;28;20426;-50
2023/10/02 00:59:00;;;;;;;35.47;10.70;;;16.70;99.90;;;;;;5203950;28;20466;-50
2023/10/02 01:01:31;;;;;;;8.00;5.67;;;16.70;99.90;;;;;;5202173;28;20567;-49
2023/10/02 01:04:10;;;;;;;11.00;5.60;;;16.70;99.90;;;;;;5204763;28;20435;-49
2023/10/02 01:07:04;;;;;;;10.63;6.13;;;16.80;99.90;;;;;;5201842;28;21014;-51
2023/10/02 01:09:35;;;;;;;10.03;6.50;;;16.70;99.90;;;;;;5206414;28;20597;-50
2023/10/02 01:12:10;;;;;;;11.10;5.83;;;16.70;99.90;;;;;;5205742;28;20552;-50
2023/10/02 01:14:50;;;;;;;13.50;5.90;;;16.70;99.90;;;;;;5196622;28;20534;-50
2023/10/02 01:17:22;;;;;;;21.83;5.87;;;16.70;99.90;;;;;;5203790;28;20422;-50
2023/10/02 01:19:53;;;;;;;10.10;5.30;;;16.80;99.90;;;;;;5201104;28;20950;-50
2023/10/02 01:22:26;;;;;;;7.37;5.20;;;16.80;99.90;;;;;;5203956;28;20972;-50
2023/10/02 01:25:13;;;;;;;10.40;5.37;;;16.70;99.90;;;;;;5205416;28;20945;-50
2023/10/02 01:27:48;;;;;;;8.63;4.63;;;16.80;99.90;;;;;;5197804;28;20435;-50
2023/10/02 01:30:21;;;;;;;4.93;4.33;;;16.80;99.90;;;;;;5203568;28;20454;-50
2023/10/02 01:35:50;;;;;;;6.57;4.20;;;16.80;99.90;;;;;;5203032;28;20793;-49
2023/10/02 01:38:32;;;;;;;8.20;4.70;;;16.80;99.90;;;;;;5202489;28;20439;-49
2023/10/02 01:41:06;;;;;;;6.50;4.60;;;16.90;99.90;;;;;;5198236;28;20580;-49
2023/10/02 01:43:42;;;;;;;11.27;5.80;;;17.00;99.90;;;;;;5204512;28;20807;-51
2023/10/02 01:46:17;;;;;;;16.17;5.50;;;17.00;99.90;;;;;;5204478;28;20442;-50
2023/10/02 01:48:52;;;;;;;8.10;4.70;;;16.90;99.90;;;;;;5200102;28;20979;-50
2023/10/02 01:51:26;;;;;;;11.37;4.90;;;16.90;99.90;;;;;;5203353;28;20532;-49
2023/10/02 01:53:59;;;;;;;4.40;3.83;;;16.90;99.90;;;;;;5204857;28;20875;-50
2023/10/02 01:56:34;;;;;;;8.30;4.00;;;16.90;99.90;;;;;;5204502;28;20556;-50
2023/10/02 01:59:11;;;;;;;5.80;4.37;;;16.90;99.90;;;;;;5200554;28;20481;-50
2023/10/02 02:01:57;;;;;;;7.27;4.63;;;16.90;99.90;;;;;;5201006;28;20440;-52
2023/10/02 02:04:32;;;;;;;8.87;4.70;;;16.90;99.90;;;;;;5200972;28;20469;-50
2023/10/02 02:07:04;;;;;;;7.53;5.17;;;16.90;99.90;;;;;;5204897;28;20430;-51
2023/10/02 02:09:37;;;;;;;6.67;5.37;;;16.90;99.90;;;;;;5199007;28;20454;-51
2023/10/02 02:12:10;;;;;;;9.07;4.20;;;16.90;99.90;;;;;;5206331;28;20466;-51
2023/10/02 02:14:52;;;;;;;7.93;4.57;;;16.90;99.90;;;;;;5199789;28;20438;-51
2023/10/02 02:17:27;;;;;;;17.63;6.70;;;16.90;99.90;;;;;;5199397;28;20471;-49
2023/10/02 02:20:11;;;;;;;10.40;5.57;;;16.80;99.90;;;;;;5204396;28;20453;-49
2023/10/02 02:22:45;;;;;;;7.20;5.00;;;16.80;99.90;;;;;;5201245;28;20437;-50
2023/10/02 02:25:26;;;;;;;5.37;4.23;;;16.80;99.90;;;;;;5204205;28;20524;-50
2023/10/02 02:27:57;;;;;;;8.30;5.53;;;16.80;99.90;;;;;;5197374;28;20929;-49
2023/10/02 02:30:28;;;;;;;6.77;4.87;;;16.80;99.90;;;;;;5201397;28;20568;-51
2023/10/02 02:33:00;;;;;;;11.80;4.57;;;16.80;99.90;;;;;;5204863;28;20658;-50
2023/10/02 02:35:31;;;;;;;7.80;4.50;;;16.80;99.90;;;;;;5202693;28;20443;-51
2023/10/02 02:38:13;;;;;;;8.97;4.30;;;16.90;99.90;;;;;;5205603;28;20579;-50
2023/10/02 02:40:54;;;;;;;5.50;3.90;;;16.80;99.90;;;;;;5194311;28;20263;-50
2023/10/02 02:43:38;;;;;;;7.47;4.30;;;16.80;99.90;;;;;;5201370;28;20559;-50
2023/10/02 02:46:17;;;;;;;8.87;4.90;;;16.80;99.90;;;;;;5204415;28;20423;-49
2023/10/02 02:48:49;;;;;;;7.30;5.30;;;16.80;99.90;;;;;;5192024;28;20793;-51
2023/10/02 02:51:23;;;;;;;15.03;4.90;;;16.70;99.90;;;;;;5207039;28;20457;-50
2023/10/02 02:53:55;;;;;;;14.70;6.07;;;16.60;99.90;;;;;;5207639;28;20500;-50
2023/10/02 02:56:28;;;;;;;13.43;5.40;;;16.60;99.90;;;;;;5204894;28;20484;-49
2023/10/02 02:59:02;;;;;;;16.83;5.40;;;16.60;99.90;;;;;;5207607;28;20458;-50
2023/10/02 03:01:34;;;;;;;11.57;5.60;;;16.60;99.90;;;;;;5200116;28;20457;-50
2023/10/02 03:04:11;;;;;;;10.50;6.30;;;16.50;99.90;;;;;;5205160;28;20438;-50
2023/10/02 03:06:42;;;;;;;10.83;5.23;;;16.40;99.90;;;;;;5207170;28;20711;-50
2023/10/02 03:09:23;;;;;;;7.67;5.30;;;16.40;99.90;;;;;;5202237;28;20464;-50
2023/10/02 03:11:53;;;;;;;15.67;5.27;;;16.30;99.90;;;;;;5207486;28;20446;-49
2023/10/02 03:14:24;;;;;;;8.20;5.50;;;16.30;99.90;;;;;;5208082;28;20521;-50
2023/10/02 03:17:22;;;;;;;18.67;5.50;;;16.20;99.90;;;;;;5205557;28;20184;-50
2023/10/02 03:19:47;;;;;;;9.10;5.50;;;16.10;99.90;;;;;;5206157;28;20232;-50
2023/10/02 03:22:18;;;;;;;10.37;6.60;;;16.00;99.90;;;;;;5205173;28;20922;-50
2023/10/02 03:24:51;;;;;;;14.07;7.20;;;16.00;99.90;;;;;;5204249;28;20434;-50
2023/10/02 03:27:22;;;;;;;11.17;6.43;;;15.90;99.90;;;;;;5205707;28;20430;-50
2023/10/02 03:29:53;;;;;;;12.73;5.60;;;15.80;99.90;;;;;;5206493;28;20465;-49
2023/10/02 03:32:42;;;;;;;13.43;5.93;;;15.80;99.90;;;;;;5201368;28;20691;-49
2023/10/02 03:35:15;;;;;;;8.73;5.83;;;15.70;99.90;;;;;;5193444;28;20454;-51
2023/10/02 03:37:51;;;;;;;14.33;6.10;;;15.70;99.90;;;;;;5207243;28;20430;-50
2023/10/02 03:40:25;;;;;;;9.87;6.90;;;15.60;99.90;;;;;;5205646;28;20509;-50
2023/10/02 03:42:56;;;;;;;12.33;5.50;;;15.60;99.90;;;;;;5197465;28;20441;-50
2023/10/02 03:45:38;;;;;;;13.37;5.80;;;15.50;99.90;;;;;;5201288;28;20435;-51
2023/10/02 03:48:09;;;;;;;12.50;6.73;;;15.50;99.90;;;;;;5208015;28;20548;-51
2023/10/02 03:50:41;;;;;;;15.80;6.93;;;15.40;99.90;;;;;;5205284;28;20454;-50
2023/10/02 03:53:12;;;;;;;13.93;6.67;;;15.40;99.90;;;;;;5204661;28;20303;-50
2023/10/02 03:55:43;;;;;;;14.93;5.60;;;15.30;99.90;;;;;;5208604;28;20484;-50
2023/10/02 03:58:16;;;;;;;10.07;5.70;;;15.30;99.90;;;;;;5199801;28;20430;-50
2023/10/02 04:00:51;;;;;;;14.90;7.07;;;15.40;99.90;;;;;;5202946;28;20210;-50
2023/10/02 04:03:21;;;;;;;23.27;6.27;;;15.30;99.90;;;;;;5203563;28;20445;-50
2023/10/02 04:05:54;;;;;;;9.63;5.77;;;15.30;99.90;;;;;;5207239;28;20434;-50
2023/10/02 04:08:37;;;;;;;13.30;7.03;;;15.30;99.90;;;;;;5202637;28;20554;-49
2023/10/02 04:11:09;;;;;;;15.10;7.00;;;15.20;99.90;;;;;;5189792;28;20927;-50
2023/10/02 04:13:43;;;;;;;11.27;6.33;;;15.20;99.90;;;;;;5203288;28;20985;-50
2023/10/02 04:16:29;;;;;;;13.63;6.00;;;15.10;99.90;;;;;;5197883;28;20434;-50
2023/10/02 04:19:01;;;;;;;7.87;5.80;;;15.10;99.90;;;;;;5204628;28;20565;-50
2023/10/02 04:21:33;;;;;;;11.77;6.37;;;15.10;99.90;;;;;;5201458;28;20435;-50
2023/10/02 04:24:09;;;;;;;16.60;6.27;;;15.00;99.90;;;;;;5186209;28;20444;-50
2023/10/02 04:26:41;;;;;;;11.80;6.67;;;15.00;99.90;;;;;;5204131;28;20438;-50
2023/10/02 04:29:26;;;;;;;11.27;6.03;;;15.00;99.90;;;;;;5203461;28;20496;-50
2023/10/02 04:32:11;;;;;;;9.43;6.43;;;15.00;99.90;;;;;;5200387;28;20871;-50
2023/10/02 04:34:56;;;;;;;7.30;5.30;;;14.90;99.90;;;;;;5198727;28;20794;-51
2023/10/02 04:37:31;;;;;;;15.00;7.43;;;14.90;99.90;;;;;;5199431;28;20437;-50
2023/10/02 04:42:57;;;;;;;12.40;7.13;;;14.90;99.90;;;;;;5201871;28;20442;-50
2023/10/02 04:45:36;;;;;;;11.00;6.33;;;14.90;99.90;;;;;;5194394;28;20452;-50
2023/10/02 04:48:09;;;;;;;16.60;5.77;;;14.90;99.90;;;;;;5196578;28;20433;-50
2023/10/02 04:50:47;;;;;;;14.13;6.60;;;14.80;99.90;;;;;;5200100;28;20450;-48
2023/10/02 04:53:22;;;;;;;13.70;7.47;;;14.80;99.90;;;;;;5199156;28;20546;-49
2023/10/02 04:56:13;;;;;;;14.93;6.60;;;14.80;99.90;;;;;;5206102;28;20426;-49
2023/10/02 04:58:51;;;;;;;15.97;7.27;;;14.80;99.90;;;;;;5200666;28;20469;-50
2023/10/02 05:04:03;;;;;;;12.10;6.57;;;14.80;99.90;;;;;;5201048;28;20438;-49
2023/10/02 05:06:44;;;;;;;13.23;6.63;;;14.90;99.90;;;;;;5206467;28;21096;-49
2023/10/02 05:11:52;;;;;;;14.03;7.57;;;14.90;99.90;;;;;;5206672;28;20481;-51
2023/10/02 05:14:28;;;;;;;17.17;7.53;;;15.00;99.90;;;;;;5205289;28;20441;-49
2023/10/02 05:17:38;;;;;;;14.70;7.27;;;15.00;99.90;;;;;;5187860;28;20919;-48
2023/10/02 05:20:13;;;;;;;18.33;7.10;;;15.00;99.90;;;;;;5192757;28;20461;-49
2023/10/02 05:22:53;;;;;;;14.87;7.00;;;15.00;99.90;;;;;;5194132;28;20446;-49
2023/10/02 05:25:25;;;;;;;18.73;7.27;;;15.00;99.90;;;;;;5194062;28;20500;-49
2023/10/02 05:27:55;;;;;;;16.53;7.77;;;15.00;99.90;;;;;;5200697;28;20434;-49
2023/10/02 05:30:28;;;;;;;15.77;7.17;;;15.10;99.90;;;;;;5193909;28;20959;-49
2023/10/02 05:32:59;;;;;;;18.23;8.07;;;15.20;99.90;;;;;;5198563;28;20258;-48
2023/10/02 05:35:29;;;;;;;14.80;8.20;;;15.20;99.90;;;;;;5196727;28;20454;-48
2023/10/02 05:38:00;;;;;;;19.20;7.17;;;15.30;99.90;;;;;;5213249;28;20188;-48
2023/10/02 05:40:42;;;;;;;12.80;6.90;;;15.30;99.90;;;;;;5196101;28;20214;-49
2023/10/02 05:43:17;;;;;;;13.93;6.60;;;15.40;99.90;;;;;;5197950;28;20206;-50
2023/10/02 05:45:50;;;;;;;16.50;8.27;;;15.40;99.90;;;;;;5200661;28;20451;-48
2023/10/02 05:50:57;;;;;;;12.10;7.70;;;15.50;99.90;;;;;;5195442;28;20815;-50
2023/10/02 05:53:34;;;;;;;15.93;8.10;;;15.60;99.90;;;;;;5204526;28;20463;-49
2023/10/02 05:56:05;;;;;;;9.83;7.10;;;15.60;99.90;;;;;;5199551;28;20521;-50
2023/10/02 05:58:37;;;;;;;20.23;8.17;;;15.80;99.90;;;;;;5196217;28;20517;-49
2023/10/02 06:01:23;;;;;;;16.63;7.60;;;15.90;99.90;;;;;;5184382;28;20259;-50
2023/10/02 06:03:57;;;;;;;15.70;7.70;;;16.10;99.90;;;;;;5201791;28;20441;-49
2023/10/02 06:06:31;;;;;;;13.33;7.33;;;16.20;99.90;;;;;;5199364;28;20497;-49
2023/10/02 06:09:03;;;;;;;15.83;8.00;;;16.60;99.90;;;;;;5203857;28;20509;-49
2023/10/02 06:11:34;;;;;;;13.47;7.53;;;16.70;99.90;;;;;;5207431;28;20926;-48
2023/10/02 06:14:12;;;;;;;13.07;7.80;;;17.00;99.90;;;;;;5201024;28;20469;-48
2023/10/02 06:16:47;;;;;;;13.50;6.93;;;17.30;99.90;;;;;;5199245;28;20176;-49
2023/10/02 06:19:18;;;;;;;11.47;7.03;;;18.60;99.90;;;;;;5198966;28;20457;-50
2023/10/02 06:22:04;;;;;;;18.50;7.40;;;20.40;99.90;;;;;;5188682;28;20477;-49
2023/10/02 06:24:35;;;;;;;18.20;7.60;;;21.80;99.90;;;;;;5202223;28;20445;-49
2023/10/02 06:29:37;;;;;;;19.40;7.77;;;24.30;98.10;;;;;;5203654;28;20203;-49
2023/10/02 06:32:25;;;;;;;15.13;8.30;;;25.10;94.50;;;;;;5202174;28;20461;-50
2023/10/02 06:34:57;;;;;;;11.70;6.93;;;25.90;90.10;;;;;;5203017;28;20492;-48
2023/10/02 06:37:36;;;;;;;14.50;6.73;;;26.80;80.50;;;;;;5198528;28;20441;-50
2023/10/02 06:40:14;;;;;;;15.53;7.00;;;27.50;72.40;;;;;;5197888;28;20877;-50
2023/10/02 06:42:52;;;;;;;20.60;9.40;;;27.50;68.50;;;;;;5204173;28;20446;-49
2023/10/02 06:45:26;;;;;;;20.30;8.60;;;27.40;66.30;;;;;;5201460;28;20525;-49
2023/10/02 06:47:57;;;;;;;14.13;7.13;;;27.90;64.00;;;;;;5198150;28;20446;-50
2023/10/02 06:50:30;;;;;;;14.00;7.83;;;28.00;61.40;;;;;;5197739;28;20544;-50
2023/10/02 06:53:01;;;;;;;11.67;7.67;;;27.90;60.80;;;;;;5196747;28;20212;-49
2023/10/02 06:55:32;;;;;;;25.40;8.00;;;28.50;59.40;;;;;;5217263;28;20442;-49
2023/10/02 06:58:03;;;;;;;15.03;7.67;;;28.80;58.20;;;;;;5194370;28;20673;-49
2023/10/02 07:00:54;;;;;;;14.30;7.60;;;28.90;57.20;;;;;;5192983;28;20490;-51
2023/10/02 07:03:25;;;;;;;14.00;7.80;;;28.50;56.50;;;;;;5194088;28;20230;-48
2023/10/02 07:05:57;;;;;;;16.73;8.97;;;28.00;56.90;;;;;;5201465;28;20427;-50
2023/10/02 07:08:30;;;;;;;12.83;8.00;;;28.00;58.10;;;;;;5185098;28;20234;-50
2023/10/02 07:11:10;;;;;;;16.10;7.60;;;28.30;57.10;;;;;;5199211;28;20430;-50
2023/10/02 07:13:51;;;;;;;15.80;7.57;;;29.10;56.00;;;;;;5201251;28;20458;-49
2023/10/02 07:16:22;;;;;;;14.33;7.93;;;30.10;53.50;;;;;;5197638;28;20426;-50
2023/10/02 07:18:54;;;;;;;13.93;7.37;;;30.50;52.10;;;;;;5200218;28;20536;-51
2023/10/02 07:21:27;;;;;;;10.70;6.87;;;30.80;51.40;;;;;;5182816;28;20565;-50
2023/10/02 07:24:02;;;;;;;10.20;6.10;;;31.10;49.80;;;;;;5198885;28;20430;-49
2023/10/02 07:26:49;;;;;;;10.43;7.40;;;31.10;50.10;;;;;;5199506;28;20446;-49
2023/10/02 07:29:37;;;;;;;13.17;7.57;;;31.20;49.00;;;;;;5196817;28;20457;-49
2023/10/02 07:32:08;;;;;;;15.00;7.33;;;31.20;48.70;;;;;;5203724;28;21483;-50
2023/10/02 07:34:38;;;;;;;12.63;7.40;;;31.30;48.30;;;;;;5201485;28;20427;-51
2023/10/02 07:37:13;;;;;;;12.70;7.13;;;31.30;48.00;;;;;;5200380;28;20511;-50
2023/10/02 07:39:44;;;;;;;12.17;7.20;;;31.10;48.50;;;;;;5200705;28;20672;-51
2023/10/02 07:42:16;;;;;;;16.27;8.70;;;30.30;49.00;;;;;;5205432;28;20438;-50
2023/10/02 07:44:50;;;;;;;18.27;7.57;;;28.90;51.00;;;;;;5195195;28;20607;-51
2023/10/02 07:47:22;;;;;;;15.90;6.63;;;27.10;54.30;;;;;;5205069;28;20487;-50
2023/10/02 07:49:55;;;;;;;19.53;9.23;;;25.50;57.80;;;;;;5201188;28;20457;-50
2023/10/02 07:52:40;;;;;;;14.47;7.77;;;24.40;60.60;;;;;;5200484;28;20486;-49
2023/10/02 07:55:13;;;;;;;22.40;8.30;;;23.80;62.80;;;;;;5196812;28;20441;-51
2023/10/02 07:57:44;;;;;;;21.27;7.03;;;23.20;64.70;;;;;;5199559;28;20449;-49
2023/10/02 08:01:06;;;;;;;16.30;8.13;;;23.00;66.20;;;;;;5201391;28;20462;-51
2023/10/02 08:03:31;;;;;;;20.50;8.73;;;22.70;68.10;;;;;;5189048;28;20188;-49
2023/10/02 08:06:20;;;;;;;14.10;7.80;;;22.70;69.50;;;;;;5208272;28;20998;-50
2023/10/02 08:11:49;;;;;;;16.23;8.23;;;22.80;70.90;;;;;;5201564;28;20457;-49
2023/10/02 08:14:35;;;;;;;12.80;7.53;;;22.90;71.90;;;;;;5198267;28;20448;-49
2023/10/02 08:17:22;;;;;;;18.30;8.20;;;23.00;71.40;;;;;;5201031;28;20434;-50
2023/10/02 08:19:54;;;;;;;10.47;6.60;;;22.90;71.80;;;;;;5202819;28;20450;-50
2023/10/02 08:22:35;;;;;;;11.70;7.47;;;23.00;73.20;;;;;;5196184;28;20600;-50
2023/10/02 08:25:13;;;;;;;22.60;7.43;;;23.10;73.20;;;;;;5199694;28;20456;-50
2023/10/02 08:27:46;;;;;;;15.40;6.90;;;23.20;73.10;;;;;;5202553;28;20525;-50
2023/10/02 08:30:27;;;;;;;10.70;6.73;;;23.30;73.20;;;;;;5196844;28;20561;-50
2023/10/02 08:33:06;;;;;;;16.50;8.00;;;23.50;73.20;;;;;;5196856;28;20474;-49
2023/10/02 08:35:37;;;;;;;25.10;7.73;;;23.50;72.70;;;;;;5200248;28;20460;-50
2023/10/02 08:38:07;;;;;;;10.50;6.73;;;23.50;72.70;;;;;;5201379;28;20439;-49
2023/10/02 08:40:40;;;;;;;13.40;7.87;;;23.50;73.00;;;;;;5197424;28;20584;-51
2023/10/02 08:43:10;;;;;;;14.73;6.53;;;23.50;73.40;;;;;;5195286;28;20186;-50
2023/10/02 08:45:44;;;;;;;12.67;7.33;;;23.40;73.70;;;;;;5197147;28;20799;-50
2023/10/02 08:48:19;;;;;;;11.87;6.37;;;23.30;74.00;;;;;;5197609;28;20187;-50
2023/10/02 08:50:50;;;;;;;20.73;6.60;;;23.30;74.40;;;;;;5198792;28;20506;-49
2023/10/02 08:53:22;;;;;;;13.23;5.90;;;23.30;74.70;;;;;;5191467;28;20463;-49
2023/10/02 08:56:04;;;;;;;13.87;6.40;;;23.40;75.40;;;;;;5199648;28;20439;-50
2023/10/02 08:58:35;;;;;;;13.37;6.37;;;23.40;75.30;;;;;;5203632;28;20462;-50
2023/10/02 09:04:21;;;;;;;11.87;6.20;;;23.30;75.50;;;;;;5202444;28;20211;-50
2023/10/02 09:06:44;;;;;;;18.30;7.63;;;23.30;76.50;;;;;;5198315;28;20184;-52
2023/10/02 09:12:03;;;;;;;11.10;6.60;;;23.60;76.10;;;;;;5190718;28;20445;-50
2023/10/02 09:17:16;;;;;;;18.40;6.60;;;23.70;76.00;;;;;;5196952;28;20447;-49
2023/10/02 09:20:00;;;;;;;15.30;7.30;;;23.60;76.30;;;;;;5199926;28;20270;-50
2023/10/02 09:22:37;;;;;;;13.20;6.70;;;23.70;77.10;;;;;;5202792;28;20438;-50
2023/10/02 09:25:13;;;;;;;10.97;6.67;;;23.80;76.20;;;;;;5203023;28;20807;-51
2023/10/02 09:27:56;;;;;;;13.87;6.57;;;23.90;76.70;;;;;;5200142;28;21011;-50
2023/10/02 09:33:22;;;;;;;11.73;5.30;;;24.20;76.20;;;;;;5200752;28;20531;-50
2023/10/02 09:35:56;;;;;;;15.63;7.90;;;24.30;76.10;;;;;;5202707;28;20450;-49
2023/10/02 09:38:31;;;;;;;20.33;7.10;;;24.50;75.30;;;;;;5194859;28;20428;-50
2023/10/02 09:43:36;;;;;;;21.87;7.27;;;24.50;75.10;;;;;;5193613;28;20477;-50
2023/10/02 09:46:21;;;;;;;10.03;4.97;;;24.70;74.30;;;;;;5194171;28;20470;-51
2023/10/02 09:49:03;;;;;;;8.37;5.63;;;24.70;74.60;;;;;;5192261;28;20218;-51
2023/10/02 09:52:11;;;;;;;10.90;5.90;;;24.80;75.10;;;;;;5197502;28;20446;-49
2023/10/02 09:54:51;;;;;;;12.53;6.37;;;25.00;74.50;;;;;;5187088;28;20435;-49
2023/10/02 09:57:29;;;;;;;11.07;5.37;;;25.10;74.00;;;;;;5192989;28;20445;-49
2023/10/02 10:03:22;;;;;;;14.03;6.50;;;25.30;73.40;;;;;;5197757;28;20974;-49
2023/10/02 10:06:08;;;;;;;10.03;5.93;;;25.40;73.00;;;;;;5192879;28;20570;-50
2023/10/02 10:14:42;;;;;;;11.87;6.80;;;25.60;72.60;;;;;;5194304;28;20462;-50
2023/10/02 10:17:21;;;;;;;11.10;5.53;;;25.80;72.00;;;;;;5196626;28;20961;-50
2023/10/02 10:20:22;;;;;;;8.53;5.10;;;25.80;71.10;;;;;;5193150;28;20286;-50
2023/10/02 10:22:56;;;;;;;9.53;4.83;;;25.70;71.60;;;;;;5192137;28;20868;-50
2023/10/02 10:25:33;;;;;;;9.13;5.07;;;25.90;70.70;;;;;;5197019;28;20442;-49
2023/10/02 10:35:51;;;;;;;13.77;6.20;;;26.00;70.10;;;;;;5192832;28;20422;-50
2023/10/02 10:38:25;;;;;;;12.97;6.17;;;26.10;69.50;;;;;;5189216;28;20188;-51
2023/10/02 10:41:06;;;;;;;10.47;5.27;;;26.10;69.60;;;;;;5196101;28;20522;-50
2023/10/02 10:46:28;;;;;;;10.70;6.00;;;25.80;70.20;;;;;;5195200;28;20517;-52
2023/10/02 10:49:10;;;;;;;8.10;5.20;;;25.80;70.30;;;;;;5192396;28;20450;-50
2023/10/02 10:51:41;;;;;;;12.13;6.27;;;25.70;70.40;;;;;;5180257;28;21286;-51
2023/10/02 10:54:41;;;;;;;10.63;5.70;;;25.70;70.50;;;;;;5199157;28;20465;-52
2023/10/02 10:57:27;;;;;;;7.47;5.37;;;25.70;70.80;;;;;;5196187;28;20439;-53
2023/10/02 11:00:31;;;;;;;9.50;5.20;;;25.80;70.80;;;;;;5224052;23;20532;-51
2023/10/02 11:03:14;;;;;;;6.20;4.73;;;25.80;70.90;;;;;;5244020;28;20453;-51
2023/10/02 11:05:45;;;;;;;11.53;5.13;;;25.60;71.00;;;;;;5246978;28;20432;-49
2023/10/02 11:08:24;;;;;;;8.07;4.77;;;25.40;71.90;;;;;;5245379;28;20523;-48
2023/10/02 11:11:02;;;;;;;10.37;5.63;;;25.40;72.30;;;;;;5237789;28;20444;-49
2023/10/02 11:13:54;;;;;;;8.87;4.87;;;25.40;72.20;;;;;;5237563;28;20843;-50
2023/10/02 11:16:43;;;;;;;7.60;4.43;;;25.50;72.20;;;;;;5243196;28;20789;-51
2023/10/02 11:22:16;;;;;;;7.47;4.67;;;25.30;73.00;;;;;;5246452;28;20441;-50
2023/10/02 11:25:21;;;;;;;10.03;6.23;;;25.30;73.40;;;;;;5247515;28;20563;-50
2023/10/02 11:27:57;;;;;;;10.50;5.50;;;25.30;73.80;;;;;;5247864;28;20747;-51
2023/10/02 11:30:31;;;;;;;9.07;5.33;;;25.20;74.00;;;;;;5245617;28;20518;-52
2023/10/02 11:33:05;;;;;;;8.47;6.10;;;25.20;73.60;;;;;;5242455;28;20820;-51
2023/10/02 11:35:38;;;;;;;14.27;5.57;;;25.30;73.90;;;;;;5248685;28;20424;-50
2023/10/02 11:38:09;;;;;;;9.70;5.00;;;25.30;73.80;;;;;;5262831;28;20483;-51
2023/10/02 11:40:43;;;;;;;10.70;5.87;;;25.40;73.50;;;;;;5244492;28;20507;-52
2023/10/02 11:43:15;;;;;;;8.97;5.73;;;25.30;73.00;;;;;;5233089;28;20247;-51
2023/10/02 11:45:47;;;;;;;16.57;5.20;;;25.40;73.70;;;;;;5238949;28;20428;-51
2023/10/02 11:48:18;;;;;;;8.97;5.07;;;25.40;74.00;;;;;;5237865;28;20450;-52
2023/10/02 11:50:50;;;;;;;12.13;5.77;;;25.50;73.20;;;;;;5239801;28;21066;-51
2023/10/02 11:53:21;;;;;;;11.67;5.93;;;25.40;73.50;;;;;;5239173;28;20213;-51
2023/10/02 11:55:54;;;;;;;13.07;5.70;;;25.50;73.20;;;;;;5242231;28;20517;-52
2023/10/02 11:58:25;;;;;;;11.50;5.80;;;25.40;72.80;;;;;;5238255;28;20557;-53
2023/10/02 12:00:57;;;;;;;11.50;5.90;;;25.40;73.20;;;;;;5238133;28;20867;-52
2023/10/02 12:03:27;;;;;;;9.43;4.90;;;25.50;73.50;;;;;;5231784;28;20538;-51
2023/10/02 12:05:58;;;;;;;11.80;5.80;;;25.50;73.20;;;;;;5238416;28;20531;-51
2023/10/02 12:08:29;;;;;;;9.17;4.83;;;25.50;72.90;;;;;;5240047;28;20233;-51
2023/10/02 12:11:00;;;;;;;9.83;5.53;;;25.40;72.90;;;;;;5236624;28;21297;-51
2023/10/02 12:13:31;;;;;;;13.63;5.67;;;25.40;73.00;;;;;;5236293;28;20288;-52
2023/10/02 12:16:02;;;;;;;9.23;5.30;;;25.40;73.50;;;;;;5235614;28;20461;-51
2023/10/02 12:18:34;;;;;;;9.37;5.83;;;25.40;72.90;;;;;;5236370;28;20178;-52
2023/10/02 12:21:10;;;;;;;10.03;5.50;;;25.60;72.90;;;;;;5234765;28;20187;-53
2023/10/02 12:23:43;;;;;;;13.70;6.40;;;25.50;72.60;;;;;;5222518;28;20472;-52
2023/10/02 12:26:17;;;;;;;10.50;5.80;;;25.40;72.30;;;;;;5233698;28;20441;-52
2023/10/02 12:28:49;;;;;;;12.47;5.90;;;25.50;72.70;;;;;;5236290;28;21227;-52
2023/10/02 12:31:19;;;;;;;12.10;5.80;;;25.50;72.70;;;;;;5234861;28;20491;-52
2023/10/02 12:33:53;;;;;;;13.57;5.87;;;25.50;72.80;;;;;;5238219;28;20469;-54
2023/10/02 12:36:26;;;;;;;14.10;7.07;;;25.60;72.50;;;;;;5243669;28;20647;-53
2023/10/02 12:38:57;;;;;;;12.50;5.93;;;25.70;72.60;;;;;;5242639;28;20429;-52
2023/10/02 12:41:30;;;;;;;9.70;5.80;;;25.70;72.40;;;;;;5225033;28;20488;-51
2023/10/02 12:44:02;;;;;;;11.43;6.83;;;25.70;72.20;;;;;;5237338;28;20458;-51
2023/10/02 12:46:33;;;;;;;6.83;5.47;;;25.80;72.80;;;;;;5235735;28;20946;-52
2023/10/02 12:49:04;;;;;;;11.77;6.37;;;25.70;72.40;;;;;;5236812;28;20445;-52
2023/10/02 12:51:34;;;;;;;13.30;6.07;;;25.50;72.40;;;;;;5234856;28;20230;-51
2023/10/02 12:54:05;;;;;;;9.60;5.43;;;25.40;73.10;;;;;;5239653;28;20293;-51
2023/10/02 12:56:39;;;;;;;11.13;5.37;;;25.30;73.40;;;;;;5233298;28;20218;-52
2023/10/02 12:59:11;;;;;;;10.67;5.60;;;25.40;73.00;;;;;;5234187;28;20572;-52
2023/10/02 13:01:43;;;;;;;11.37;6.13;;;25.20;73.40;;;;;;5236170;28;20456;-52
2023/10/02 13:04:14;;;;;;;12.30;5.90;;;25.10;73.90;;;;;;5233184;28;20441;-52
2023/10/02 13:06:45;;;;;;;11.10;6.10;;;25.10;74.30;;;;;;5235342;28;20774;-52
2023/10/02 13:09:18;;;;;;;11.50;5.80;;;25.10;74.30;;;;;;5232318;28;20711;-51
2023/10/02 13:11:49;;;;;;;14.03;6.33;;;25.10;74.50;;;;;;5236616;28;20432;-52
2023/10/02 13:14:20;;;;;;;7.87;4.90;;;25.10;74.60;;;;;;5234114;28;20468;-51
2023/10/02 13:16:50;;;;;;;9.83;5.27;;;25.10;74.70;;;;;;5232608;28;20265;-51
2023/10/02 13:19:21;;;;;;;10.97;7.30;;;25.10;74.80;;;;;;5232291;28;20814;-50
2023/10/02 13:21:52;;;;;;;10.53;5.40;;;25.10;74.40;;;;;;5236036;28;20174;-53
2023/10/02 13:24:23;;;;;;;10.80;5.33;;;25.00;73.90;;;;;;5233934;28;20554;-52
2023/10/02 13:26:54;;;;;;;10.37;5.83;;;25.00;74.80;;;;;;5234691;28;20428;-52
2023/10/02 13:29:25;;;;;;;11.03;5.33;;;25.00;74.40;;;;;;5234466;28;20202;-51
2023/10/02 13:31:55;;;;;;;14.50;4.60;;;24.90;74.50;;;;;;5231996;28;20308;-52
2023/10/02 13:34:26;;;;;;;8.23;4.90;;;24.90;74.70;;;;;;5241498;28;20221;-52
2023/10/02 13:36:57;;;;;;;6.20;4.03;;;24.90;74.70;;;;;;5235005;28;20186;-50
2023/10/02 13:39:29;;;;;;;11.13;4.87;;;24.90;74.60;;;;;;5239801;28;20205;-52
2023/10/02 13:41:59;;;;;;;9.53;4.70;;;24.90;74.90;;;;;;5234249;28;20433;-52
2023/10/02 13:44:30;;;;;;;11.53;5.83;;;24.90;75.10;;;;;;5232452;28;20447;-51
2023/10/02 13:47:03;;;;;;;13.20;6.73;;;24.90;75.60;;;;;;5246442;28;20269;-53
2023/10/02 13:49:34;;;;;;;10.77;6.80;;;24.90;75.40;;;;;;5234884;28;20713;-53
2023/10/02 13:52:05;;;;;;;11.63;5.47;;;24.90;75.60;;;;;;5239812;28;20527;-51
2023/10/02 13:54:37;;;;;;;9.77;6.03;;;25.00;75.60;;;;;;5233509;28;20266;-52
2023/10/02 13:57:07;;;;;;;8.67;5.20;;;25.00;75.60;;;;;;5231613;28;20186;-52
2023/10/02 13:59:38;;;;;;;8.70;5.40;;;25.10;75.00;;;;;;5231758;28;20982;-53
2023/10/02 14:02:10;;;;;;;8.37;5.47;;;25.10;75.20;;;;;;5232846;28;20183;-52
2023/10/02 14:04:41;;;;;;;9.43;5.17;;;25.20;75.40;;;;;;5231719;28;20183;-53
2023/10/02 14:07:13;;;;;;;13.17;8.37;;;25.20;75.10;;;;;;5238257;28;20975;-52
2023/10/02 14:09:44;;;;;;;12.80;6.80;;;25.20;74.00;;;;;;5231663;28;20285;-54
2023/10/02 14:12:15;;;;;;;7.80;5.70;;;25.30;74.20;;;;;;5230895;28;20500;-53
2023/10/02 14:14:46;;;;;;;10.17;4.93;;;25.30;74.40;;;;;;5235974;28;20635;-52
2023/10/02 14:17:17;;;;;;;5.03;4.37;;;25.30;74.50;;;;;;5235348;28;20232;-53